createdAt,value
2022-08-08T00:01:21.409Z,27.64
2022-08-08T00:04:18.894Z,27.67
2022-08-08T00:07:12.591Z,27.68
2022-08-08T00:09:56.252Z,27.67
2022-08-08T00:12:37.183Z,27.71
2022-08-08T00:15:17.487Z,27.76
2022-08-08T00:18:03.887Z,27.80
2022-08-08T00:20:41.676Z,27.80
2022-08-08T00:23:17.215Z,27.79
2022-08-08T00:25:52.953Z,27.79
2022-08-08T00:28:35.080Z,27.79
2022-08-08T00:32:21.455Z,27.77
2022-08-08T00:34:48.286Z,27.76
2022-08-08T00:37:46.848Z,27.75
2022-08-08T00:41:12.009Z,27.74
2022-08-08T00:44:00.403Z,27.68
2022-08-08T00:47:23.090Z,27.67
2022-08-08T00:50:24.751Z,27.66
2022-08-08T00:53:06.736Z,27.70
2022-08-08T00:56:26.939Z,27.73
2022-08-08T00:59:46.824Z,27.71
2022-08-08T01:03:58.026Z,27.75
2022-08-08T01:06:28.719Z,27.75
2022-08-08T01:09:35.903Z,27.74
2022-08-08T01:12:49.823Z,27.68
2022-08-08T01:15:59.926Z,27.62
2022-08-08T01:19:13.719Z,27.61
2022-08-08T01:22:23.449Z,27.60
2022-08-08T01:25:16.830Z,27.61
2022-08-08T01:28:05.584Z,27.53
2022-08-08T01:32:02.874Z,27.51
2022-08-08T01:34:37.818Z,27.54
2022-08-08T01:37:57.157Z,27.57
2022-08-08T01:40:37.878Z,27.60
2022-08-08T01:43:22.627Z,27.60
2022-08-08T01:45:58.570Z,27.60
2022-08-08T01:48:48.790Z,27.61
2022-08-08T01:52:04.654Z,27.62
2022-08-08T01:55:18.789Z,27.60
2022-08-08T01:58:16.668Z,27.56
2022-08-08T02:00:59.863Z,27.55
2022-08-08T02:03:56.060Z,27.52
2022-08-08T02:06:43.811Z,27.51
2022-08-08T02:10:01.757Z,27.51
2022-08-08T02:12:26.150Z,27.53
2022-08-08T02:15:03.648Z,27.54
2022-08-08T02:17:47.178Z,27.54
2022-08-08T02:21:01.549Z,27.53
2022-08-08T02:23:31.643Z,27.50
2022-08-08T02:26:10.019Z,27.47
2022-08-08T02:28:53.831Z,27.46
2022-08-08T02:31:58.390Z,27.47
2022-08-08T02:35:08.855Z,27.43
2022-08-08T02:41:18.017Z,27.41
2022-08-08T02:44:44.904Z,27.37
2022-08-08T02:47:56.293Z,27.34
2022-08-08T02:50:56.931Z,27.28
2022-08-08T02:53:50.872Z,27.25
2022-08-08T02:56:51.177Z,27.25
2022-08-08T03:00:26.706Z,27.26
2022-08-08T03:05:01.384Z,27.25
2022-08-08T03:07:07.170Z,27.23
2022-08-08T03:10:33.793Z,27.25
2022-08-08T03:15:56.683Z,27.21
2022-08-08T03:16:48.641Z,27.25
2022-08-08T03:19:30.419Z,27.27
2022-08-08T03:21:59.604Z,27.27
2022-08-08T03:24:29.286Z,27.26
2022-08-08T03:27:07.932Z,27.25
2022-08-08T03:29:55.032Z,27.26
2022-08-08T03:32:47.295Z,27.26
2022-08-08T03:35:24.307Z,27.28
2022-08-08T03:38:00.031Z,27.30
2022-08-08T03:40:52.004Z,27.30
2022-08-08T03:43:21.632Z,27.29
2022-08-08T03:46:06.326Z,27.31
2022-08-08T03:49:31.029Z,27.28
2022-08-08T03:51:50.484Z,27.26
2022-08-08T03:54:40.814Z,27.24
2022-08-08T03:58:35.512Z,27.20
2022-08-08T04:00:07.647Z,27.15
2022-08-08T04:02:47.383Z,27.16
2022-08-08T04:05:27.380Z,27.18
2022-08-08T04:07:58.947Z,27.17
2022-08-08T04:10:32.895Z,27.18
2022-08-08T04:13:17.249Z,27.16
2022-08-08T04:16:03.925Z,27.07
2022-08-08T04:18:41.900Z,27.06
2022-08-08T04:21:14.995Z,27.08
2022-08-08T04:24:19.142Z,27.02
2022-08-08T04:26:57.260Z,27.07
2022-08-08T04:29:33.431Z,27.07
2022-08-08T04:32:10.498Z,27.06
2022-08-08T04:34:49.604Z,27.08
2022-08-08T04:37:32.326Z,27.13
2022-08-08T04:40:07.455Z,27.15
2022-08-08T04:42:46.629Z,27.15
2022-08-08T04:45:28.854Z,27.16
2022-08-08T04:48:00.430Z,27.17
2022-08-08T04:50:38.506Z,27.16
2022-08-08T04:56:55.975Z,27.11
2022-08-08T04:59:42.511Z,27.17
2022-08-08T05:02:14.625Z,27.22
2022-08-08T05:04:49.990Z,27.22
2022-08-08T05:07:19.359Z,27.17
2022-08-08T05:09:49.215Z,27.09
2022-08-08T05:12:21.575Z,27.09
2022-08-08T05:14:58.923Z,27.11
2022-08-08T05:17:53.387Z,27.12
2022-08-08T05:20:19.912Z,27.14
2022-08-08T05:22:53.672Z,27.17
2022-08-08T05:25:25.444Z,27.19
2022-08-08T05:28:10.592Z,27.22
2022-08-08T05:30:41.576Z,27.27
2022-08-08T05:33:17.923Z,27.29
2022-08-08T05:35:53.957Z,27.26
2022-08-08T05:38:31.619Z,27.28
2022-08-08T05:41:04.525Z,27.30
2022-08-08T05:43:39.561Z,27.30
2022-08-08T05:46:28.805Z,27.31
2022-08-08T05:49:11.417Z,27.34
2022-08-08T05:51:48.620Z,27.38
2022-08-08T05:54:27.653Z,27.41
2022-08-08T05:57:21.043Z,27.43
2022-08-08T06:00:24.958Z,27.45
2022-08-08T06:03:17.608Z,27.42
2022-08-08T06:05:59.465Z,27.34
2022-08-08T06:08:35.614Z,27.30
2022-08-08T06:11:07.078Z,27.25
2022-08-08T06:13:47.414Z,27.20
2022-08-08T06:16:27.384Z,27.16
2022-08-08T06:19:07.241Z,27.14
2022-08-08T06:21:51.852Z,27.13
2022-08-08T06:24:30.652Z,27.12
2022-08-08T06:27:13.094Z,27.11
2022-08-08T06:30:00.139Z,27.12
2022-08-08T06:32:32.205Z,27.09
2022-08-08T06:36:06.178Z,27.09
2022-08-08T06:38:09.306Z,27.09
2022-08-08T06:40:56.212Z,27.06
2022-08-08T06:43:35.646Z,27.04
2022-08-08T06:46:08.629Z,27.06
2022-08-08T06:48:44.032Z,27.10
2022-08-08T06:51:16.765Z,27.15
2022-08-08T06:53:51.196Z,27.19
2022-08-08T06:56:26.342Z,27.20
2022-08-08T06:59:00.879Z,27.18
2022-08-08T07:02:17.158Z,27.21
2022-08-08T07:04:49.561Z,27.25
2022-08-08T07:07:27.816Z,27.28
2022-08-08T07:10:08.169Z,27.31
2022-08-08T07:12:43.251Z,27.32
2022-08-08T07:15:31.839Z,27.38
2022-08-08T07:18:35.645Z,27.45
2022-08-08T07:21:18.710Z,27.50
2022-08-08T07:23:57.498Z,27.55
2022-08-08T07:26:38.629Z,27.59
2022-08-08T07:29:20.270Z,27.60
2022-08-08T07:31:58.220Z,27.62
2022-08-08T07:34:31.633Z,27.65
2022-08-08T07:37:11.997Z,27.71
2022-08-08T07:39:45.819Z,27.76
2022-08-08T07:42:33.302Z,27.73
2022-08-08T07:45:03.839Z,27.71
2022-08-08T07:47:38.947Z,27.72
2022-08-08T07:50:10.557Z,27.74
2022-08-08T07:52:44.415Z,27.77
2022-08-08T07:55:23.435Z,27.82
2022-08-08T07:58:21.042Z,27.83
2022-08-08T08:00:52.791Z,27.83
2022-08-08T08:03:30.722Z,27.87
2022-08-08T08:06:12.985Z,27.92
2022-08-08T08:08:53.657Z,27.95
2022-08-08T08:11:23.953Z,28.03
2022-08-08T08:14:08.245Z,28.07
2022-08-08T08:16:41.535Z,28.10
2022-08-08T08:19:19.756Z,28.17
2022-08-08T08:21:57.845Z,28.24
2022-08-08T08:24:30.528Z,28.29
2022-08-08T08:27:02.675Z,28.32
2022-08-08T08:29:33.126Z,28.33
2022-08-08T08:32:06.226Z,28.33
2022-08-08T08:34:43.367Z,28.32
2022-08-08T08:37:30.401Z,28.34
2022-08-08T08:40:02.870Z,28.39
2022-08-08T08:42:35.799Z,28.42
2022-08-08T08:45:10.225Z,28.47
2022-08-08T08:47:54.310Z,28.51
2022-08-08T08:50:32.667Z,28.55
2022-08-08T08:53:54.924Z,28.60
2022-08-08T08:56:02.014Z,28.65
2022-08-08T08:58:35.123Z,28.71
2022-08-08T09:01:13.403Z,28.76
2022-08-08T09:03:51.157Z,28.79
2022-08-08T09:06:28.463Z,28.82
2022-08-08T09:09:07.439Z,28.87
2022-08-08T09:12:02.123Z,28.93
2022-08-08T09:14:42.085Z,28.96
2022-08-08T09:17:18.305Z,28.99
2022-08-08T09:22:02.628Z,29.05
2022-08-08T09:22:39.507Z,29.07
2022-08-08T09:25:22.669Z,29.10
2022-08-08T09:27:57.526Z,29.15
2022-08-08T09:30:31.433Z,29.17
2022-08-08T09:33:53.984Z,29.16
2022-08-08T09:36:09.356Z,29.19
2022-08-08T09:38:51.966Z,29.25
2022-08-08T09:42:14.628Z,29.31
2022-08-08T09:44:33.867Z,29.39
2022-08-08T09:48:02.643Z,29.46
2022-08-08T09:50:01.364Z,29.50
2022-08-08T09:52:57.601Z,29.53
2022-08-08T09:55:31.618Z,29.59
2022-08-08T09:58:26.154Z,29.64
2022-08-08T10:01:14.310Z,29.72
2022-08-08T10:03:56.090Z,29.78
2022-08-08T10:06:29.681Z,29.81
2022-08-08T10:08:59.942Z,29.85
2022-08-08T10:12:26.859Z,29.89
2022-08-08T10:14:28.318Z,29.93
2022-08-08T10:18:03.502Z,29.90
2022-08-08T10:20:00.026Z,29.88
2022-08-08T10:22:30.596Z,29.87
2022-08-08T10:25:16.726Z,29.90
2022-08-08T10:27:52.174Z,29.98
2022-08-08T10:31:00.506Z,30.06
2022-08-08T10:33:17.968Z,30.05
2022-08-08T10:36:08.437Z,30.07
2022-08-08T10:38:55.215Z,30.10
2022-08-08T10:41:35.355Z,30.14
2022-08-08T10:44:20.202Z,30.18
2022-08-08T10:46:50.083Z,30.20
2022-08-08T10:49:26.943Z,30.24
2022-08-08T10:52:29.978Z,30.30
2022-08-08T10:55:06.182Z,30.31
2022-08-08T10:57:50.012Z,30.31
2022-08-08T11:00:25.621Z,30.36
2022-08-08T11:02:56.291Z,30.43
2022-08-08T11:05:27.558Z,30.50
2022-08-08T11:08:37.138Z,30.56
2022-08-08T11:11:07.983Z,30.63
2022-08-08T11:13:59.977Z,30.72
2022-08-08T11:16:34.383Z,30.78
2022-08-08T11:19:05.726Z,30.86
2022-08-08T11:21:45.119Z,30.97
2022-08-08T11:24:27.346Z,31.07
2022-08-08T11:27:19.150Z,31.13
2022-08-08T11:30:19.485Z,31.16
2022-08-08T11:32:42.507Z,31.23
2022-08-08T11:35:27.844Z,31.31
2022-08-08T11:38:38.560Z,31.41
2022-08-08T11:40:56.387Z,31.44
2022-08-08T11:43:25.936Z,31.48
2022-08-08T11:46:13.886Z,31.57
2022-08-08T11:48:48.684Z,31.66
2022-08-08T11:51:29.646Z,31.76
2022-08-08T11:54:02.577Z,31.88
2022-08-08T11:56:35.594Z,31.98
2022-08-08T11:59:12.373Z,32.07
2022-08-08T12:01:42.072Z,32.16
2022-08-08T12:04:11.664Z,32.24
2022-08-08T12:06:42.941Z,32.26
2022-08-08T12:09:17.132Z,32.31
2022-08-08T12:11:49.452Z,32.40
2022-08-08T12:14:29.282Z,32.49
2022-08-08T12:16:58.897Z,32.51
2022-08-08T12:19:37.730Z,32.55
2022-08-08T12:22:20.519Z,32.66
2022-08-08T12:24:53.868Z,32.74
2022-08-08T12:27:26.571Z,32.85
2022-08-08T12:29:59.314Z,32.93
2022-08-08T12:32:31.182Z,33.05
2022-08-08T12:35:13.687Z,33.12
2022-08-08T12:38:01.988Z,33.22
2022-08-08T12:40:54.730Z,33.34
2022-08-08T12:43:48.083Z,33.53
2022-08-08T12:46:26.738Z,33.77
2022-08-08T12:51:58.646Z,34.42
2022-08-08T12:54:35.697Z,34.64
2022-08-08T12:57:17.137Z,34.91
2022-08-08T13:00:04.420Z,35.27
2022-08-08T13:02:42.004Z,35.58
2022-08-08T13:05:26.707Z,35.91
2022-08-08T13:08:17.960Z,36.18
2022-08-08T13:10:56.109Z,36.47
2022-08-08T13:13:35.080Z,36.70
2022-08-08T13:16:26.038Z,36.96
2022-08-08T13:19:06.587Z,37.14
2022-08-08T13:21:53.251Z,37.13
2022-08-08T13:24:40.890Z,37.27
2022-08-08T13:28:00.940Z,37.58
2022-08-08T13:30:30.830Z,37.96
2022-08-08T13:33:01.266Z,38.27
2022-08-08T13:35:45.785Z,38.35
2022-08-08T13:38:25.031Z,38.33
2022-08-08T13:41:00.138Z,38.53
2022-08-08T13:43:29.731Z,38.66
2022-08-08T13:46:26.686Z,38.71
2022-08-08T13:49:11.579Z,38.60
2022-08-08T13:52:01.684Z,38.74
2022-08-08T13:54:35.796Z,38.97
2022-08-08T13:57:12.846Z,39.08
2022-08-08T13:59:47.950Z,39.28
2022-08-08T14:02:21.731Z,39.41
2022-08-08T14:04:57.219Z,39.42
2022-08-08T14:07:29.793Z,39.42
2022-08-08T14:10:11.773Z,39.54
2022-08-08T14:12:43.838Z,39.73
2022-08-08T14:15:31.404Z,39.91
2022-08-08T14:18:36.841Z,39.99
2022-08-08T14:21:08.175Z,40.03
2022-08-08T14:24:06.349Z,40.11
2022-08-08T14:26:42.665Z,40.21
2022-08-08T14:29:30.027Z,40.31
2022-08-08T14:32:09.213Z,40.34
2022-08-08T14:34:45.406Z,40.19
2022-08-08T14:37:18.944Z,40.14
2022-08-08T14:39:54.207Z,39.90
2022-08-08T14:42:54.509Z,39.63
2022-08-08T14:45:28.948Z,39.40
2022-08-08T14:48:05.613Z,39.30
2022-08-08T14:50:39.274Z,39.21
2022-08-08T14:53:14.659Z,38.92
2022-08-08T14:55:45.003Z,38.68
2022-08-08T14:58:16.693Z,38.64
2022-08-08T15:00:51.903Z,38.80
2022-08-08T15:03:22.392Z,38.99
2022-08-08T15:05:53.701Z,38.98
2022-08-08T15:08:35.640Z,38.98
2022-08-08T15:11:10.736Z,39.03
2022-08-08T15:14:01.041Z,39.00
2022-08-08T15:16:34.391Z,38.84
2022-08-08T15:19:04.813Z,38.68
2022-08-08T15:21:34.358Z,38.63
2022-08-08T15:24:13.835Z,38.54
2022-08-08T15:26:43.967Z,38.56
2022-08-08T15:29:24.541Z,38.57
2022-08-08T15:32:17.834Z,38.64
2022-08-08T15:34:46.203Z,38.84
2022-08-08T15:37:17.270Z,38.98
2022-08-08T15:39:49.243Z,39.13
2022-08-08T15:42:41.712Z,39.29
2022-08-08T15:45:11.076Z,39.23
2022-08-08T15:47:40.399Z,39.19
2022-08-08T15:50:49.507Z,39.08
2022-08-08T15:53:21.912Z,38.90
2022-08-08T15:55:51.599Z,38.74
2022-08-08T15:58:21.166Z,38.65
2022-08-08T16:00:57.645Z,38.60
2022-08-08T16:03:26.857Z,38.51
2022-08-08T16:06:01.825Z,38.41
2022-08-08T16:08:31.756Z,38.36
2022-08-08T16:13:09.300Z,38.31
2022-08-08T16:13:53.360Z,38.31
2022-08-08T16:16:23.108Z,38.24
2022-08-08T16:18:56.805Z,38.15
2022-08-08T16:21:31.967Z,38.05
2022-08-08T16:24:03.113Z,38.04
2022-08-08T16:26:40.461Z,38.02
2022-08-08T16:29:37.020Z,37.95
2022-08-08T16:32:12.967Z,37.90
2022-08-08T16:34:44.521Z,37.91
2022-08-08T16:37:16.202Z,37.91
2022-08-08T16:40:01.560Z,37.87
2022-08-08T16:42:34.832Z,37.80
2022-08-08T16:45:11.185Z,37.74
2022-08-08T16:47:59.628Z,37.60
2022-08-08T16:50:29.066Z,37.40
2022-08-08T16:55:22.598Z,37.26
2022-08-08T16:56:14.370Z,37.05
2022-08-08T16:58:45.328Z,36.81
2022-08-08T17:01:27.037Z,36.60
2022-08-08T17:04:10.000Z,36.33
2022-08-08T17:06:43.791Z,36.03
2022-08-08T17:09:15.895Z,35.63
2022-08-08T17:11:56.607Z,35.36
2022-08-08T17:14:34.239Z,35.11
2022-08-08T17:17:05.969Z,34.78
2022-08-08T17:19:55.211Z,34.45
2022-08-08T17:22:39.076Z,34.18
2022-08-08T17:25:12.018Z,33.88
2022-08-08T17:27:46.250Z,33.67
2022-08-08T17:30:16.945Z,33.47
2022-08-08T17:34:36.882Z,33.29
2022-08-08T17:35:53.408Z,33.09
2022-08-08T17:38:24.643Z,32.94
2022-08-08T17:41:00.085Z,32.81
2022-08-08T17:43:31.344Z,32.70
2022-08-08T17:46:37.248Z,32.54
2022-08-08T17:49:08.364Z,32.35
2022-08-08T17:51:40.372Z,32.17
2022-08-08T17:54:22.528Z,32.03
2022-08-08T17:57:03.111Z,31.89
2022-08-08T17:59:45.839Z,31.76
2022-08-08T18:02:21.219Z,31.63
2022-08-08T18:04:51.582Z,31.49
2022-08-08T18:08:15.453Z,31.33
2022-08-08T18:23:07.193Z,31.33
2022-08-08T18:25:46.082Z,31.22
2022-08-08T18:28:16.518Z,31.10
2022-08-08T18:30:54.123Z,31.00
2022-08-08T18:34:11.508Z,30.94
2022-08-08T18:36:28.906Z,30.86
2022-08-08T18:39:10.856Z,30.78
2022-08-08T18:41:58.080Z,30.74
2022-08-08T18:44:39.141Z,30.69
2022-08-08T18:47:39.112Z,30.65
2022-08-08T18:51:42.049Z,30.60
2022-08-08T18:54:22.763Z,30.56
2022-08-08T18:57:43.456Z,30.51
2022-08-08T19:00:25.463Z,30.46
2022-08-08T19:03:06.906Z,30.43
2022-08-08T19:05:51.523Z,30.37
2022-08-08T19:08:29.156Z,30.30
2022-08-08T19:11:17.319Z,30.24
2022-08-08T19:14:04.552Z,30.21
2022-08-08T19:16:34.847Z,30.19
2022-08-08T19:19:14.055Z,30.15
2022-08-08T19:21:48.590Z,30.06
2022-08-08T19:24:43.852Z,29.94
2022-08-08T19:27:57.047Z,29.83
2022-08-08T19:30:29.769Z,29.74
2022-08-08T19:33:17.272Z,29.68
2022-08-08T19:36:18.147Z,29.63
2022-08-08T19:39:00.894Z,29.58
2022-08-08T19:41:39.762Z,29.53
2022-08-08T19:44:45.448Z,29.49
2022-08-08T19:47:26.803Z,29.42
2022-08-08T19:50:26.529Z,29.34
2022-08-08T19:52:59.915Z,29.25
2022-08-08T19:55:49.614Z,29.15
2022-08-08T19:58:31.261Z,29.09
2022-08-08T20:01:21.451Z,29.05
2022-08-08T20:04:04.553Z,29.01
2022-08-08T20:06:46.697Z,28.98
2022-08-08T20:09:22.637Z,28.91
2022-08-08T20:12:11.695Z,28.86
2022-08-08T20:14:51.743Z,28.82
2022-08-08T20:17:33.196Z,28.77
2022-08-08T20:20:30.704Z,28.71
2022-08-08T20:23:04.363Z,28.64
2022-08-08T20:25:47.761Z,28.58
2022-08-08T20:28:32.767Z,28.55
2022-08-08T20:31:10.634Z,28.52
2022-08-08T20:34:03.632Z,28.48
2022-08-08T20:36:49.470Z,28.40
2022-08-08T20:39:21.293Z,28.32
2022-08-08T20:41:53.266Z,28.27
2022-08-08T20:44:27.768Z,28.24
2022-08-08T20:47:23.096Z,28.18
2022-08-08T20:49:57.698Z,28.12
2022-08-08T20:52:57.096Z,28.06
2022-08-08T20:55:52.259Z,28.00
2022-08-08T20:58:29.836Z,27.98
2022-08-08T21:01:19.641Z,27.96
2022-08-08T21:04:05.767Z,27.94
2022-08-08T21:06:53.427Z,27.91
2022-08-08T21:10:02.397Z,27.90
2022-08-08T21:12:32.274Z,27.88
2022-08-08T21:15:10.804Z,27.86
2022-08-08T21:17:56.039Z,27.87
2022-08-08T21:20:34.065Z,27.87
2022-08-08T21:23:09.163Z,27.87
2022-08-08T21:25:39.760Z,27.88
2022-08-08T21:28:15.917Z,27.88
2022-08-08T21:30:52.558Z,27.88
2022-08-08T21:33:22.201Z,27.91
2022-08-08T21:36:14.923Z,27.93
2022-08-08T21:38:44.028Z,27.93
2022-08-08T21:41:18.500Z,27.93
2022-08-08T21:44:07.373Z,27.94
2022-08-08T21:48:05.106Z,27.94
2022-08-08T21:49:55.027Z,27.95
2022-08-08T21:54:31.358Z,27.95
2022-08-08T21:56:18.101Z,27.95
2022-08-08T21:58:09.622Z,27.95
2022-08-08T22:00:44.871Z,27.97
2022-08-08T22:03:17.890Z,28.00
2022-08-08T22:05:49.428Z,28.01
2022-08-08T22:08:24.006Z,28.01
2022-08-08T22:10:56.721Z,28.01
2022-08-08T22:13:50.002Z,28.02
2022-08-08T22:16:24.007Z,28.00
2022-08-08T22:18:56.025Z,27.96
2022-08-08T22:21:34.502Z,27.95
2022-08-08T22:24:05.331Z,27.93
2022-08-08T22:26:35.886Z,27.92
2022-08-08T22:30:01.400Z,27.91
2022-08-08T22:32:15.890Z,27.92
2022-08-08T22:34:50.734Z,27.92
2022-08-08T22:37:48.799Z,27.92
2022-08-08T22:43:11.345Z,27.87
2022-08-08T22:45:46.611Z,27.85
2022-08-08T22:48:35.571Z,27.83
2022-08-08T22:51:07.869Z,27.82
2022-08-08T22:54:34.178Z,27.80
2022-08-08T22:56:28.228Z,27.77
2022-08-08T22:59:00.215Z,27.76
2022-08-08T23:02:02.173Z,27.71
2022-08-08T23:04:48.785Z,27.70
2022-08-08T23:07:52.160Z,27.68
2022-08-08T23:10:53.020Z,27.62
2022-08-08T23:16:42.199Z,27.57
2022-08-08T23:18:12.432Z,27.49
2022-08-08T23:20:44.350Z,27.47
2022-08-08T23:23:25.917Z,27.45
2022-08-08T23:25:56.380Z,27.40
2022-08-08T23:28:26.275Z,27.38
2022-08-08T23:30:56.932Z,27.36
2022-08-08T23:34:15.261Z,27.34
2022-08-08T23:36:30.625Z,27.32
2022-08-08T23:39:03.147Z,27.31
2022-08-08T23:41:45.927Z,27.27
2022-08-08T23:44:19.459Z,27.25
2022-08-08T23:48:59.782Z,27.23
2022-08-08T23:49:49.643Z,27.20
2022-08-08T23:52:33.575Z,27.17
2022-08-08T23:55:22.358Z,27.13
2022-08-08T23:57:54.579Z,27.10
